createdAt,value
2017-12-13T00:00:31.079Z,1012.02
2017-12-13T00:01:39.903Z,1012.07
2017-12-13T00:02:48.723Z,1012.11
2017-12-13T00:03:57.547Z,1012.06
2017-12-13T00:05:06.646Z,1012.05
2017-12-13T00:06:15.742Z,1011.92
2017-12-13T00:07:24.663Z,1012.02
2017-12-13T00:08:33.485Z,1012.07
2017-12-13T00:09:42.310Z,1012.03
2017-12-13T00:10:51.131Z,1012.11
2017-12-13T00:11:59.954Z,1012.05
2017-12-13T00:13:08.833Z,1012
2017-12-13T00:14:17.656Z,1012.03
2017-12-13T00:15:26.479Z,1011.97
2017-12-13T00:16:35.301Z,1012.06
2017-12-13T00:17:44.127Z,1012.1
2017-12-13T00:18:53.046Z,1011.97
2017-12-13T00:20:01.869Z,1012.02
2017-12-13T00:21:10.691Z,1012.05
2017-12-13T00:22:19.514Z,1012.01
2017-12-13T00:23:28.352Z,1012.03
2017-12-13T00:24:37.312Z,1012.14
2017-12-13T00:25:46.407Z,1012.04
2017-12-13T00:26:55.232Z,1012
2017-12-13T00:28:04.057Z,1011.99
2017-12-13T00:29:12.881Z,1011.91
2017-12-13T00:30:21.703Z,1011.96
2017-12-13T00:31:30.525Z,1011.98
2017-12-13T00:32:39.348Z,1011.85
2017-12-13T00:33:48.172Z,1011.9
2017-12-13T00:34:56.995Z,1011.9
2017-12-13T00:36:05.818Z,1011.92
2017-12-13T00:37:14.640Z,1011.86
2017-12-13T00:38:23.461Z,1011.87
2017-12-13T00:39:32.285Z,1011.8
2017-12-13T00:40:41.109Z,1011.73
2017-12-13T00:41:49.931Z,1011.74
2017-12-13T00:42:58.754Z,1011.73
2017-12-13T00:44:07.578Z,1011.65
2017-12-13T00:45:16.401Z,1011.64
2017-12-13T00:46:25.224Z,1011.69
2017-12-13T00:47:34.346Z,1011.61
2017-12-13T00:48:43.168Z,1011.63
2017-12-13T00:49:51.992Z,1011.59
2017-12-13T00:51:00.819Z,1011.61
2017-12-13T00:52:09.643Z,1011.61
2017-12-13T00:53:18.564Z,1011.57
2017-12-13T00:54:27.386Z,1011.6
2017-12-13T00:55:36.216Z,1011.56
2017-12-13T00:56:45.032Z,1011.53
2017-12-13T00:57:53.855Z,1011.52
2017-12-13T00:59:02.827Z,1011.54
2017-12-13T01:00:11.649Z,1011.49
2017-12-13T01:01:20.470Z,1011.48
2017-12-13T01:02:29.593Z,1011.43
2017-12-13T01:03:38.415Z,1011.39
2017-12-13T01:04:47.663Z,1011.44
2017-12-13T01:05:56.486Z,1011.41
2017-12-13T01:07:05.308Z,1011.4
2017-12-13T01:08:14.129Z,1011.38
2017-12-13T01:09:22.953Z,1011.32
2017-12-13T01:10:31.779Z,1011.34
2017-12-13T01:11:40.875Z,1011.35
2017-12-13T01:12:49.696Z,1011.35
2017-12-13T01:13:58.801Z,1011.31
2017-12-13T01:15:07.619Z,1011.29
2017-12-13T01:16:16.765Z,1011.28
2017-12-13T01:17:25.587Z,1011.3
2017-12-13T01:18:34.407Z,1011.28
2017-12-13T01:19:43.506Z,1011.25
2017-12-13T01:20:52.378Z,1011.28
2017-12-13T01:22:01.499Z,1011.28
2017-12-13T01:23:10.323Z,1011.31
2017-12-13T01:24:19.145Z,1011.28
2017-12-13T01:25:27.967Z,1011.27
2017-12-13T01:26:36.787Z,1011.32
2017-12-13T01:27:45.809Z,1011.3
2017-12-13T01:28:54.631Z,1011.31
2017-12-13T01:30:03.453Z,1011.3
2017-12-13T01:31:12.274Z,1011.28
2017-12-13T01:32:21.098Z,1011.26
2017-12-13T01:33:30.294Z,1011.27
2017-12-13T01:34:39.117Z,1011.21
2017-12-13T01:35:47.937Z,1011.24
2017-12-13T01:36:56.757Z,1011.16
2017-12-13T01:38:05.579Z,1011.22
2017-12-13T01:39:14.453Z,1011.17
2017-12-13T01:40:23.275Z,1011.18
2017-12-13T01:41:32.099Z,1011.15
2017-12-13T01:42:41.200Z,1011.13
2017-12-13T01:43:50.024Z,1011.16
2017-12-13T01:44:58.997Z,1011.11
2017-12-13T01:46:07.820Z,1011.16
2017-12-13T01:47:16.642Z,1011.15
2017-12-13T01:48:25.465Z,1011.13
2017-12-13T01:49:34.289Z,1011.13
2017-12-13T01:50:43.117Z,1011.1
2017-12-13T01:51:51.934Z,1011.09
2017-12-13T01:53:01.029Z,1011.02
2017-12-13T01:54:09.849Z,1011.03
2017-12-13T01:55:18.670Z,1011.02
2017-12-13T01:56:27.643Z,1010.97
2017-12-13T01:57:36.998Z,1010.95
2017-12-13T01:58:45.820Z,1010.9
2017-12-13T01:59:54.644Z,1010.94
2017-12-13T02:01:03.468Z,1010.95
2017-12-13T02:02:12.341Z,1010.86
2017-12-13T02:03:21.163Z,1010.88
2017-12-13T02:04:29.987Z,1010.89
2017-12-13T02:05:38.811Z,1010.89
2017-12-13T02:06:47.632Z,1010.91
2017-12-13T02:07:56.607Z,1010.88
2017-12-13T02:09:05.426Z,1010.85
2017-12-13T02:10:14.255Z,1010.85
2017-12-13T02:11:23.074Z,1010.82
2017-12-13T02:12:31.896Z,1010.81
2017-12-13T02:13:40.874Z,1010.79
2017-12-13T02:14:49.980Z,1010.78
2017-12-13T02:15:58.803Z,1010.75
2017-12-13T02:17:07.627Z,1010.74
2017-12-13T02:18:16.730Z,1010.67
2017-12-13T02:19:25.753Z,1010.7
2017-12-13T02:20:34.576Z,1010.72
2017-12-13T02:21:43.397Z,1010.64
2017-12-13T02:22:52.223Z,1010.63
2017-12-13T02:24:01.045Z,1010.68
2017-12-13T02:25:09.914Z,1010.62
2017-12-13T02:26:18.742Z,1010.61
2017-12-13T02:27:27.558Z,1010.56
2017-12-13T02:28:36.378Z,1010.6
2017-12-13T02:29:45.200Z,1010.52
2017-12-13T02:30:54.222Z,1010.54
2017-12-13T02:32:03.046Z,1010.54
2017-12-13T02:33:11.869Z,1010.51
2017-12-13T02:34:20.693Z,1010.52
2017-12-13T02:35:29.514Z,1010.47
2017-12-13T02:36:38.585Z,1010.41
2017-12-13T02:37:47.405Z,1010.37
2017-12-13T02:38:56.226Z,1010.37
2017-12-13T02:40:05.048Z,1010.29
2017-12-13T02:41:13.872Z,1010.33
2017-12-13T02:42:22.996Z,1010.35
2017-12-13T02:43:32.103Z,1010.29
2017-12-13T02:44:41.202Z,1010.28
2017-12-13T02:45:50.035Z,1010.26
2017-12-13T02:46:58.852Z,1010.24
2017-12-13T02:48:07.776Z,1010.26
2017-12-13T02:49:16.602Z,1010.23
2017-12-13T02:50:25.426Z,1010.21
2017-12-13T02:51:34.246Z,1010.23
2017-12-13T02:52:43.347Z,1010.18
2017-12-13T02:53:52.321Z,1010.15
2017-12-13T02:55:01.144Z,1010.16
2017-12-13T02:56:10.249Z,1010.1
2017-12-13T02:57:19.339Z,1010.15
2017-12-13T02:58:28.163Z,1010.14
2017-12-13T02:59:37.084Z,1010.11
2017-12-13T03:00:45.904Z,1010.1
2017-12-13T03:01:54.724Z,1010.13
2017-12-13T03:03:03.547Z,1010.16
2017-12-13T03:04:12.654Z,1010.17
2017-12-13T03:05:21.573Z,1010.11
2017-12-13T03:06:30.394Z,1010.1
2017-12-13T03:07:39.216Z,1010.13
2017-12-13T03:08:48.039Z,1010.05
2017-12-13T03:09:56.960Z,1010.05
2017-12-13T03:11:05.932Z,1010.1
2017-12-13T03:12:14.757Z,1010.04
2017-12-13T03:13:23.579Z,1010.07
2017-12-13T03:14:32.404Z,1010.05
2017-12-13T03:15:41.226Z,1010
2017-12-13T03:16:50.325Z,1009.97
2017-12-13T03:17:59.148Z,1009.95
2017-12-13T03:19:07.971Z,1009.96
2017-12-13T03:20:16.792Z,1009.95
2017-12-13T03:21:25.615Z,1009.91
2017-12-13T03:22:34.640Z,1009.84
2017-12-13T03:23:43.459Z,1009.87
2017-12-13T03:24:52.281Z,1009.83
2017-12-13T03:26:01.103Z,1009.83
2017-12-13T03:27:09.925Z,1009.83
2017-12-13T03:28:18.747Z,1009.82
2017-12-13T03:29:27.571Z,1009.74
2017-12-13T03:30:36.395Z,1009.78
2017-12-13T03:31:45.532Z,1009.73
2017-12-13T03:32:54.354Z,1009.78
2017-12-13T03:34:03.230Z,1009.79
2017-12-13T03:35:12.052Z,1009.81
2017-12-13T03:36:20.872Z,1009.79
2017-12-13T03:37:29.700Z,1009.79
2017-12-13T03:38:38.792Z,1009.75
2017-12-13T03:39:47.665Z,1009.68
2017-12-13T03:40:56.487Z,1009.67
2017-12-13T03:42:05.310Z,1009.64
2017-12-13T03:43:14.135Z,1009.59
2017-12-13T03:44:22.962Z,1009.51
2017-12-13T03:45:31.977Z,1009.53
2017-12-13T03:46:41.078Z,1009.47
2017-12-13T03:47:49.902Z,1009.47
2017-12-13T03:48:59.057Z,1009.47
2017-12-13T03:50:07.878Z,1009.47
2017-12-13T03:51:17.102Z,1009.52
2017-12-13T03:52:25.925Z,1009.5
2017-12-13T03:53:34.744Z,1009.43
2017-12-13T03:54:43.568Z,1009.47
2017-12-13T03:55:52.391Z,1009.45
2017-12-13T03:57:01.365Z,1009.39
2017-12-13T03:58:10.185Z,1009.32
2017-12-13T03:59:19.008Z,1009.33
2017-12-13T04:00:27.829Z,1009.31
2017-12-13T04:01:36.651Z,1009.26
2017-12-13T04:02:45.621Z,1009.3
2017-12-13T04:03:54.442Z,1009.25
2017-12-13T04:05:03.264Z,1009.25
2017-12-13T04:06:12.086Z,1009.26
2017-12-13T04:07:20.909Z,1009.29
2017-12-13T04:08:29.885Z,1009.19
2017-12-13T04:09:38.704Z,1009.21
2017-12-13T04:10:47.807Z,1009.25
2017-12-13T04:11:56.627Z,1009.31
2017-12-13T04:13:05.447Z,1009.24
2017-12-13T04:14:14.469Z,1009.23
2017-12-13T04:15:23.291Z,1009.27
2017-12-13T04:16:32.112Z,1009.29
2017-12-13T04:17:40.932Z,1009.32
2017-12-13T04:18:49.754Z,1009.23
2017-12-13T04:19:58.677Z,1009.21
2017-12-13T04:21:07.497Z,1009.22
2017-12-13T04:22:16.318Z,1009.2
2017-12-13T04:23:25.141Z,1009.22
2017-12-13T04:24:33.962Z,1009.2
2017-12-13T04:25:42.938Z,1009.2
2017-12-13T04:26:51.762Z,1009.17
2017-12-13T04:28:00.585Z,1009.2
2017-12-13T04:29:09.411Z,1009.19
2017-12-13T04:30:18.510Z,1009.1
2017-12-13T04:31:27.435Z,1009.05
2017-12-13T04:32:36.258Z,1009.1
2017-12-13T04:33:45.083Z,1009.09
2017-12-13T04:34:53.903Z,1009.07
2017-12-13T04:36:02.728Z,1009.04
2017-12-13T04:37:11.597Z,1009.06
2017-12-13T04:38:20.421Z,1009.03
2017-12-13T04:39:29.243Z,1008.99
2017-12-13T04:40:38.066Z,1008.94
2017-12-13T04:41:46.889Z,1008.92
2017-12-13T04:42:56.013Z,1008.9
2017-12-13T04:44:04.835Z,1008.91
2017-12-13T04:45:13.656Z,1008.91
2017-12-13T04:46:22.480Z,1008.81
2017-12-13T04:47:31.304Z,1008.85
2017-12-13T04:48:40.423Z,1008.8
2017-12-13T04:49:49.247Z,1008.85
2017-12-13T04:50:58.070Z,1008.83
2017-12-13T04:52:06.893Z,1008.89
2017-12-13T04:53:15.720Z,1008.89
2017-12-13T04:54:24.635Z,1008.81
2017-12-13T04:55:33.460Z,1008.81
2017-12-13T04:56:42.281Z,1008.75
2017-12-13T04:57:51.104Z,1008.71
2017-12-13T04:58:59.929Z,1008.72
2017-12-13T05:00:09.149Z,1008.71
2017-12-13T05:01:17.972Z,1008.73
2017-12-13T05:02:26.796Z,1008.63
2017-12-13T05:03:35.620Z,1008.63
2017-12-13T05:04:44.716Z,1008.63
2017-12-13T05:05:53.993Z,1008.64
2017-12-13T05:07:02.816Z,1008.63
2017-12-13T05:08:11.640Z,1008.67
2017-12-13T05:09:20.462Z,1008.64
2017-12-13T05:10:29.562Z,1008.68
2017-12-13T05:11:38.688Z,1008.64
2017-12-13T05:12:47.512Z,1008.7
2017-12-13T05:13:56.336Z,1008.65
2017-12-13T05:15:05.158Z,1008.66
2017-12-13T05:16:13.978Z,1008.61
2017-12-13T05:17:22.953Z,1008.68
2017-12-13T05:18:31.775Z,1008.61
2017-12-13T05:19:40.598Z,1008.62
2017-12-13T05:20:49.419Z,1008.48
2017-12-13T05:21:58.247Z,1008.5
2017-12-13T05:23:07.068Z,1008.44
2017-12-13T05:24:15.890Z,1008.41
2017-12-13T05:25:24.713Z,1008.41
2017-12-13T05:26:33.537Z,1008.36
2017-12-13T05:27:42.361Z,1008.33
2017-12-13T05:28:51.331Z,1008.32
2017-12-13T05:30:00.152Z,1008.25
2017-12-13T05:31:09.258Z,1008.25
2017-12-13T05:32:18.081Z,1008.27
2017-12-13T05:33:26.911Z,1008.16
2017-12-13T05:34:35.733Z,1008.08
2017-12-13T05:35:44.556Z,1008.14
2017-12-13T05:36:53.377Z,1008.06
2017-12-13T05:38:02.202Z,1008.04
2017-12-13T05:39:11.075Z,1008.01
2017-12-13T05:40:19.900Z,1007.94
2017-12-13T05:41:28.722Z,1007.97
2017-12-13T05:42:37.544Z,1007.95
2017-12-13T05:43:46.368Z,1008.02
2017-12-13T05:44:55.326Z,1007.93
2017-12-13T05:46:04.200Z,1007.95
2017-12-13T05:47:13.065Z,1007.89
2017-12-13T05:48:21.892Z,1007.94
2017-12-13T05:49:30.712Z,1007.91
2017-12-13T05:50:39.538Z,1007.85
2017-12-13T05:51:48.360Z,1007.82
2017-12-13T05:52:57.181Z,1007.93
2017-12-13T05:54:06.001Z,1007.8
2017-12-13T05:55:14.823Z,1007.75
2017-12-13T05:56:23.645Z,1007.8
2017-12-13T05:57:32.469Z,1007.73
2017-12-13T05:58:41.292Z,1007.7
2017-12-13T05:59:50.215Z,1007.66
2017-12-13T06:00:59.312Z,1007.64
2017-12-13T06:02:08.132Z,1007.62
2017-12-13T06:03:16.956Z,1007.58
2017-12-13T06:04:25.778Z,1007.49
2017-12-13T06:05:35.104Z,1007.57
2017-12-13T06:06:44.208Z,1007.56
2017-12-13T06:07:53.034Z,1007.48
2017-12-13T06:09:01.857Z,1007.48
2017-12-13T06:10:10.679Z,1007.48
2017-12-13T06:11:19.832Z,1007.48
2017-12-13T06:12:28.734Z,1007.4
2017-12-13T06:13:37.561Z,1007.34
2017-12-13T06:14:46.400Z,1007.39
2017-12-13T06:15:55.225Z,1007.28
2017-12-13T06:17:04.149Z,1007.35
2017-12-13T06:18:12.972Z,1007.3
2017-12-13T06:19:21.797Z,1007.28
2017-12-13T06:20:30.897Z,1007.32
2017-12-13T06:21:39.720Z,1007.33
2017-12-13T06:22:48.642Z,1007.28
2017-12-13T06:23:57.463Z,1007.2
2017-12-13T06:25:06.296Z,1007.27
2017-12-13T06:26:15.118Z,1007.22
2017-12-13T06:27:24.217Z,1007.28
2017-12-13T06:28:33.640Z,1007.18
2017-12-13T06:29:42.465Z,1007.09
2017-12-13T06:30:51.308Z,1007.19
2017-12-13T06:32:00.271Z,1007.14
2017-12-13T06:33:09.206Z,1007.11
2017-12-13T06:34:18.455Z,1007.06
2017-12-13T06:35:27.362Z,1007.2
2017-12-13T06:36:36.327Z,1007.1
2017-12-13T06:37:45.259Z,1006.99
2017-12-13T06:38:54.082Z,1007
2017-12-13T06:40:03.057Z,1007.03
2017-12-13T06:41:11.882Z,1007.05
2017-12-13T06:42:20.703Z,1007.04
2017-12-13T06:43:29.807Z,1007.03
2017-12-13T06:44:38.630Z,1007.05
2017-12-13T06:45:47.470Z,1006.89
2017-12-13T06:46:56.277Z,1006.96
2017-12-13T06:48:05.100Z,1006.81
2017-12-13T06:49:13.923Z,1006.82
2017-12-13T06:50:23.026Z,1006.86
2017-12-13T06:51:31.853Z,1006.88
2017-12-13T06:52:40.677Z,1006.87
2017-12-13T06:53:49.502Z,1006.87
2017-12-13T06:54:58.327Z,1006.85
2017-12-13T06:56:07.147Z,1006.79
2017-12-13T06:57:16.170Z,1006.81
2017-12-13T06:58:24.992Z,1006.78
2017-12-13T06:59:34.100Z,1006.78
2017-12-13T07:00:42.923Z,1006.77
2017-12-13T07:01:51.746Z,1006.71
2017-12-13T07:03:00.917Z,1006.77
2017-12-13T07:04:09.742Z,1006.75
2017-12-13T07:05:18.574Z,1006.68
2017-12-13T07:06:27.397Z,1006.58
2017-12-13T07:07:36.226Z,1006.63
2017-12-13T07:08:45.374Z,1006.57
2017-12-13T07:09:54.470Z,1006.58
2017-12-13T07:11:03.295Z,1006.56
2017-12-13T07:12:12.222Z,1006.54
2017-12-13T07:13:21.326Z,1006.49
2017-12-13T07:14:30.971Z,1006.46
2017-12-13T07:15:39.792Z,1006.45
2017-12-13T07:16:48.617Z,1006.41
2017-12-13T07:17:57.437Z,1006.37
2017-12-13T07:19:06.535Z,1006.38
2017-12-13T07:20:15.710Z,1006.42
2017-12-13T07:21:24.545Z,1006.39
2017-12-13T07:22:33.369Z,1006.41
2017-12-13T07:23:42.192Z,1006.32
2017-12-13T07:24:51.017Z,1006.31
2017-12-13T07:26:00.143Z,1006.29
2017-12-13T07:27:08.970Z,1006.34
2017-12-13T07:28:17.784Z,1006.3
2017-12-13T07:29:26.609Z,1006.27
2017-12-13T07:30:35.433Z,1006.26
2017-12-13T07:31:44.425Z,1006.22
2017-12-13T07:32:53.250Z,1006.21
2017-12-13T07:34:02.076Z,1006.15
2017-12-13T07:35:10.899Z,1006.22
2017-12-13T07:36:19.723Z,1006.23
2017-12-13T07:37:28.846Z,1006.16
2017-12-13T07:38:37.671Z,1006.12
2017-12-13T07:39:46.498Z,1006.12
2017-12-13T07:40:55.321Z,1006.15
2017-12-13T07:42:04.144Z,1006.08
2017-12-13T07:43:13.070Z,1006.06
2017-12-13T07:44:21.890Z,1006.08
2017-12-13T07:45:30.714Z,1006.01
2017-12-13T07:46:39.535Z,1005.95
2017-12-13T07:47:48.360Z,1006
2017-12-13T07:48:57.436Z,1005.93
2017-12-13T07:50:06.260Z,1005.88
2017-12-13T07:51:15.086Z,1005.89
2017-12-13T07:52:23.909Z,1005.92
2017-12-13T07:53:32.736Z,1005.86
2017-12-13T07:54:41.566Z,1005.92
2017-12-13T07:55:50.666Z,1005.78
2017-12-13T07:56:59.768Z,1005.76
2017-12-13T07:58:08.590Z,1005.78
2017-12-13T07:59:17.415Z,1005.75
2017-12-13T08:00:26.338Z,1005.7
2017-12-13T08:01:35.163Z,1005.71
2017-12-13T08:02:43.986Z,1005.67
2017-12-13T08:03:52.811Z,1005.66
2017-12-13T08:05:01.637Z,1005.74
2017-12-13T08:06:10.559Z,1005.66
2017-12-13T08:07:19.385Z,1005.69
2017-12-13T08:08:28.312Z,1005.69
2017-12-13T08:09:37.406Z,1005.64
2017-12-13T08:10:46.229Z,1005.6
2017-12-13T08:11:55.102Z,1005.59
2017-12-13T08:13:03.927Z,1005.52
2017-12-13T08:14:12.751Z,1005.48
2017-12-13T08:15:21.574Z,1005.52
2017-12-13T08:16:30.448Z,1005.47
2017-12-13T08:17:39.324Z,1005.45
2017-12-13T08:18:48.147Z,1005.51
2017-12-13T08:19:57.245Z,1005.42
2017-12-13T08:21:06.070Z,1005.37
2017-12-13T08:22:14.896Z,1005.37
2017-12-13T08:23:23.772Z,1005.31
2017-12-13T08:24:32.597Z,1005.26
2017-12-13T08:25:41.696Z,1005.22
2017-12-13T08:26:50.622Z,1005.19
2017-12-13T08:27:59.722Z,1005.17
2017-12-13T08:29:08.599Z,1005.14
2017-12-13T08:30:17.424Z,1005.1
2017-12-13T08:31:26.250Z,1005.09
2017-12-13T08:32:35.073Z,1005.09
2017-12-13T08:33:43.897Z,1005.13
2017-12-13T08:34:53.023Z,1005.05
2017-12-13T08:36:01.848Z,1005.08
2017-12-13T08:37:10.673Z,1005.13
2017-12-13T08:38:19.500Z,1005.05
2017-12-13T08:39:28.324Z,1005.02
2017-12-13T08:40:37.150Z,1005.05
2017-12-13T08:41:45.976Z,1005
2017-12-13T08:42:55.075Z,1005.01
2017-12-13T08:44:03.900Z,1004.97
2017-12-13T08:45:13.016Z,1004.94
2017-12-13T08:46:22.159Z,1004.89
2017-12-13T08:47:30.990Z,1004.94
2017-12-13T08:48:40.092Z,1004.92
2017-12-13T08:49:49.024Z,1004.8
2017-12-13T08:50:57.843Z,1004.86
2017-12-13T08:52:06.716Z,1004.89
2017-12-13T08:53:15.843Z,1004.91
2017-12-13T08:54:24.936Z,1004.89
2017-12-13T08:55:33.760Z,1004.78
2017-12-13T08:56:42.591Z,1004.88
2017-12-13T08:57:51.514Z,1004.73
2017-12-13T08:59:00.339Z,1004.76
2017-12-13T09:00:09.164Z,1004.7
2017-12-13T09:01:17.989Z,1004.67
2017-12-13T09:02:26.811Z,1004.6
2017-12-13T09:03:35.636Z,1004.59
2017-12-13T09:04:44.459Z,1004.67
2017-12-13T09:05:53.383Z,1004.59
2017-12-13T09:07:02.206Z,1004.61
2017-12-13T09:08:11.030Z,1004.59
2017-12-13T09:09:19.957Z,1004.54
2017-12-13T09:10:28.788Z,1004.54
2017-12-13T09:11:37.612Z,1004.52
2017-12-13T09:12:46.707Z,1004.48
2017-12-13T09:13:55.534Z,1004.5
2017-12-13T09:15:04.658Z,1004.48
2017-12-13T09:16:13.484Z,1004.46
2017-12-13T09:17:22.307Z,1004.46
2017-12-13T09:18:31.134Z,1004.41
2017-12-13T09:19:39.958Z,1004.38
2017-12-13T09:20:49.085Z,1004.39
2017-12-13T09:21:57.911Z,1004.34
2017-12-13T09:23:06.734Z,1004.4
2017-12-13T09:24:15.561Z,1004.26
2017-12-13T09:25:24.393Z,1004.28
2017-12-13T09:26:33.469Z,1004.28
2017-12-13T09:27:42.295Z,1004.23
2017-12-13T09:28:51.120Z,1004.18
2017-12-13T09:29:59.946Z,1004.13
2017-12-13T09:31:08.778Z,1004.21
2017-12-13T09:32:17.598Z,1004.09
2017-12-13T09:33:26.422Z,1004.13
2017-12-13T09:34:35.300Z,1004.09
2017-12-13T09:35:44.127Z,1004.04
2017-12-13T09:36:52.948Z,1004.01
2017-12-13T09:38:01.824Z,1003.94
2017-12-13T09:39:10.701Z,1003.98
2017-12-13T09:40:19.527Z,1003.91
2017-12-13T09:41:28.624Z,1003.83
2017-12-13T09:42:37.448Z,1003.86
2017-12-13T09:43:46.375Z,1003.8
2017-12-13T09:44:55.201Z,1003.72
2017-12-13T09:46:04.028Z,1003.69
2017-12-13T09:47:12.854Z,1003.62
2017-12-13T09:48:21.678Z,1003.56
2017-12-13T09:49:30.513Z,1003.56
2017-12-13T09:50:39.341Z,1003.47
2017-12-13T09:51:48.445Z,1003.43
2017-12-13T09:52:57.270Z,1003.41
2017-12-13T09:54:06.093Z,1003.5
2017-12-13T09:55:15.070Z,1003.36
2017-12-13T09:56:24.469Z,1003.37
2017-12-13T09:57:33.294Z,1003.33
2017-12-13T09:58:42.116Z,1003.31
2017-12-13T09:59:50.941Z,1003.22
2017-12-13T10:01:00.024Z,1003.29
2017-12-13T10:02:08.841Z,1003.24
2017-12-13T10:03:17.667Z,1003.23
2017-12-13T10:04:26.493Z,1003.16
2017-12-13T10:05:35.317Z,1003.12
2017-12-13T10:06:44.293Z,1003.09
2017-12-13T10:07:53.120Z,1003.09
2017-12-13T10:09:01.944Z,1003.03
2017-12-13T10:10:10.772Z,1002.97
2017-12-13T10:11:19.597Z,1002.94
2017-12-13T10:12:28.571Z,1002.93
2017-12-13T10:13:37.391Z,1002.77
2017-12-13T10:14:46.219Z,1002.86
2017-12-13T10:15:55.042Z,1002.83
2017-12-13T10:17:03.966Z,1002.74
2017-12-13T10:18:13.041Z,1002.78
2017-12-13T10:19:21.865Z,1002.7
2017-12-13T10:20:30.691Z,1002.65
2017-12-13T10:21:39.516Z,1002.55
2017-12-13T10:22:48.342Z,1002.61
2017-12-13T10:23:57.914Z,1002.54
2017-12-13T10:25:06.740Z,1002.49
2017-12-13T10:26:15.565Z,1002.37
2017-12-13T10:27:24.393Z,1002.42
2017-12-13T10:28:33.219Z,1002.33
2017-12-13T10:29:42.094Z,1002.23
2017-12-13T10:30:50.920Z,1002.24
2017-12-13T10:31:59.744Z,1002.19
2017-12-13T10:33:08.569Z,1002.13
2017-12-13T10:34:17.392Z,1002.05
2017-12-13T10:35:26.638Z,1001.99
2017-12-13T10:36:35.462Z,1001.94
2017-12-13T10:37:44.561Z,1001.95
2017-12-13T10:38:53.388Z,1001.91
2017-12-13T10:40:02.214Z,1001.91
2017-12-13T10:41:11.238Z,1001.89
2017-12-13T10:42:20.065Z,1001.81
2017-12-13T10:43:28.894Z,1001.71
2017-12-13T10:44:37.718Z,1001.75
2017-12-13T10:45:46.544Z,1001.63
2017-12-13T10:46:55.423Z,1001.67
2017-12-13T10:48:04.522Z,1001.65
2017-12-13T10:49:13.351Z,1001.64
2017-12-13T10:50:22.178Z,1001.52
2017-12-13T10:51:31.002Z,1001.39
2017-12-13T10:52:39.928Z,1001.38
2017-12-13T10:53:48.753Z,1001.34
2017-12-13T10:54:57.853Z,1001.31
2017-12-13T10:56:07.320Z,1001.38
2017-12-13T10:57:16.146Z,1001.27
2017-12-13T10:58:25.458Z,1001.27
2017-12-13T10:59:34.282Z,1001.21
2017-12-13T11:00:43.661Z,1001.18
2017-12-13T11:01:52.485Z,1001.16
2017-12-13T11:03:01.587Z,1001.06
2017-12-13T11:04:10.413Z,1001.11
2017-12-13T11:05:19.240Z,1001.03
2017-12-13T11:06:28.343Z,1001
2017-12-13T11:07:37.168Z,1000.94
2017-12-13T11:08:46.295Z,1000.82
2017-12-13T11:09:55.119Z,1000.84
2017-12-13T11:11:03.948Z,1000.84
2017-12-13T11:12:12.773Z,1000.64
2017-12-13T11:13:21.601Z,1000.69
2017-12-13T11:14:30.701Z,1000.65
2017-12-13T11:15:39.527Z,1000.59
2017-12-13T11:16:48.352Z,1000.6
2017-12-13T11:17:57.176Z,1000.42
2017-12-13T11:19:06.006Z,1000.48
2017-12-13T11:20:14.877Z,1000.47
2017-12-13T11:21:23.703Z,1000.51
2017-12-13T11:22:32.525Z,1000.5
2017-12-13T11:23:41.454Z,1000.44
2017-12-13T11:24:50.227Z,1000.29
2017-12-13T11:25:59.313Z,1000.22
2017-12-13T11:27:08.139Z,1000.3
2017-12-13T11:28:16.963Z,1000.29
2017-12-13T11:29:25.789Z,1000.25
2017-12-13T11:30:34.616Z,1000.16
2017-12-13T11:31:43.441Z,1000.11
2017-12-13T11:32:52.266Z,1000.05
2017-12-13T11:34:01.093Z,1000.07
2017-12-13T11:35:10.194Z,1000.09
2017-12-13T11:36:19.020Z,1000.07
2017-12-13T11:37:27.843Z,1000.05
2017-12-13T11:38:36.944Z,999.93
2017-12-13T11:39:45.771Z,999.98
2017-12-13T11:40:54.594Z,999.83
2017-12-13T11:42:03.758Z,999.6
2017-12-13T11:43:12.834Z,999.65
2017-12-13T11:44:21.659Z,999.67
2017-12-13T11:45:30.481Z,999.74
2017-12-13T11:46:39.305Z,999.79
2017-12-13T11:47:48.130Z,999.7
2017-12-13T11:48:57.055Z,999.62
2017-12-13T11:50:05.882Z,999.53
2017-12-13T11:51:14.705Z,999.52
2017-12-13T11:52:23.530Z,999.49
2017-12-13T11:53:32.352Z,999.44
2017-12-13T11:54:41.598Z,999.44
2017-12-13T11:55:50.417Z,999.39
2017-12-13T11:56:59.242Z,999.38
2017-12-13T11:58:08.065Z,999.36
2017-12-13T11:59:16.890Z,999.34
2017-12-13T12:00:25.864Z,999.27
2017-12-13T12:01:34.963Z,999.22
2017-12-13T12:02:43.789Z,999.21
2017-12-13T12:03:52.615Z,999.31
2017-12-13T12:05:01.445Z,999.28
2017-12-13T12:06:10.262Z,999.17
2017-12-13T12:07:19.089Z,999.12
2017-12-13T12:08:27.932Z,999.12
2017-12-13T12:09:37.261Z,999.08
2017-12-13T12:10:46.156Z,999.01
2017-12-13T12:11:55.758Z,998.85
2017-12-13T12:13:04.813Z,998.96
2017-12-13T12:14:13.709Z,998.99
2017-12-13T12:15:23.101Z,998.98
2017-12-13T12:16:32.258Z,999
2017-12-13T12:17:41.497Z,998.97
2017-12-13T12:18:50.874Z,998.9
2017-12-13T12:20:00.160Z,998.88
2017-12-13T12:21:09.054Z,998.77
2017-12-13T12:22:17.912Z,998.79
2017-12-13T12:23:26.797Z,998.73
2017-12-13T12:24:35.830Z,998.57
2017-12-13T12:25:44.976Z,998.56
2017-12-13T12:26:54.346Z,998.64
2017-12-13T12:28:03.522Z,998.61
2017-12-13T12:29:12.455Z,998.55
2017-12-13T12:30:21.357Z,998.46
2017-12-13T12:31:30.209Z,998.47
2017-12-13T12:32:39.260Z,998.37
2017-12-13T12:33:48.087Z,998.38
2017-12-13T12:34:57.175Z,998.42
2017-12-13T12:36:06.004Z,998.34
2017-12-13T12:37:14.983Z,998.27
2017-12-13T12:38:24.136Z,998.24
2017-12-13T12:39:33.238Z,998.21
2017-12-13T12:40:42.391Z,998.11
2017-12-13T12:41:51.268Z,998.11
2017-12-13T12:43:00.919Z,998.08
2017-12-13T12:44:09.750Z,998.07
2017-12-13T12:45:18.600Z,998.06
2017-12-13T12:46:27.609Z,997.98
2017-12-13T12:47:36.647Z,998.01
2017-12-13T12:48:45.473Z,997.96
2017-12-13T12:49:54.300Z,997.9
2017-12-13T12:51:04.003Z,997.85
2017-12-13T12:52:12.909Z,997.87
2017-12-13T12:53:21.830Z,997.79
2017-12-13T12:54:31.117Z,997.78
2017-12-13T12:55:39.940Z,997.76
2017-12-13T12:56:48.771Z,997.74
2017-12-13T12:57:57.647Z,997.67
2017-12-13T12:59:06.471Z,997.62
2017-12-13T13:00:15.296Z,997.57
2017-12-13T13:01:24.120Z,997.44
2017-12-13T13:02:32.944Z,997.6
2017-12-13T13:03:41.820Z,997.55
2017-12-13T13:04:50.944Z,997.46
2017-12-13T13:05:59.921Z,997.39
2017-12-13T13:07:08.748Z,997.44
2017-12-13T13:08:17.574Z,997.37
2017-12-13T13:09:26.815Z,997.32
2017-12-13T13:10:35.636Z,997.25
2017-12-13T13:11:44.462Z,997.38
2017-12-13T13:12:53.335Z,997.31
2017-12-13T13:14:02.240Z,997.26
2017-12-13T13:15:11.068Z,997.27
2017-12-13T13:16:19.947Z,997.2
2017-12-13T13:17:28.770Z,997.16
2017-12-13T13:18:37.594Z,997.15
2017-12-13T13:19:46.419Z,997.13
2017-12-13T13:20:55.292Z,997.09
2017-12-13T13:22:04.117Z,997.03
2017-12-13T13:23:12.943Z,997.02
2017-12-13T13:24:22.045Z,996.94
2017-12-13T13:25:30.869Z,996.99
2017-12-13T13:26:40.022Z,997
2017-12-13T13:27:48.845Z,996.96
2017-12-13T13:28:57.675Z,996.87
2017-12-13T13:30:06.497Z,996.85
2017-12-13T13:31:15.321Z,996.87
2017-12-13T13:32:24.197Z,996.8
2017-12-13T13:33:33.027Z,996.82
2017-12-13T13:34:41.868Z,996.77
2017-12-13T13:35:50.693Z,996.72
2017-12-13T13:36:59.800Z,996.68
2017-12-13T13:38:08.767Z,996.66
2017-12-13T13:39:17.592Z,996.59
2017-12-13T13:40:26.416Z,996.62
2017-12-13T13:41:35.241Z,996.57
2017-12-13T13:42:44.062Z,996.54
2017-12-13T13:43:53.141Z,996.6
2017-12-13T13:45:01.966Z,996.57
2017-12-13T13:46:10.792Z,996.54
2017-12-13T13:47:19.615Z,996.55
2017-12-13T13:48:28.719Z,996.41
2017-12-13T13:49:37.542Z,996.47
2017-12-13T13:50:46.388Z,996.45
2017-12-13T13:51:55.221Z,996.44
2017-12-13T13:53:04.047Z,996.5
2017-12-13T13:54:12.869Z,996.36
2017-12-13T13:55:21.848Z,996.36
2017-12-13T13:56:30.670Z,996.3
2017-12-13T13:57:39.492Z,996.23
2017-12-13T13:58:48.324Z,996.27
2017-12-13T13:59:57.142Z,996.2
2017-12-13T14:01:06.299Z,996.29